sensor_id;sensor_type;location;lat;lon;timestamp;P1;durP1;ratioP1;P2;durP2;ratioP2
71637;SDS011;59485;43.542;-5.676;2022-10-24T00:00:25;6.67;;;1.77;;
71637;SDS011;59485;43.542;-5.676;2022-10-24T00:02:50;9.33;;;2.40;;
71637;SDS011;59485;43.542;-5.676;2022-10-24T00:05:16;7.18;;;2.17;;
71637;SDS011;59485;43.542;-5.676;2022-10-24T00:07:41;5.30;;;2.00;;
71637;SDS011;59485;43.542;-5.676;2022-10-24T00:10:07;7.18;;;1.60;;
71637;SDS011;59485;43.542;-5.676;2022-10-24T00:12:35;6.93;;;1.90;;
71637;SDS011;59485;43.542;-5.676;2022-10-24T00:15:00;9.75;;;2.95;;
71637;SDS011;59485;43.542;-5.676;2022-10-24T00:17:26;8.57;;;2.60;;
71637;SDS011;59485;43.542;-5.676;2022-10-24T00:19:51;8.70;;;2.63;;
71637;SDS011;59485;43.542;-5.676;2022-10-24T00:22:18;9.70;;;3.80;;
71637;SDS011;59485;43.542;-5.676;2022-10-24T00:24:44;7.97;;;3.20;;
71637;SDS011;59485;43.542;-5.676;2022-10-24T00:27:10;7.87;;;2.50;;
71637;SDS011;59485;43.542;-5.676;2022-10-24T00:29:35;10.63;;;2.45;;
71637;SDS011;59485;43.542;-5.676;2022-10-24T00:32:01;10.67;;;3.37;;
71637;SDS011;59485;43.542;-5.676;2022-10-24T00:34:26;9.97;;;3.40;;
71637;SDS011;59485;43.542;-5.676;2022-10-24T00:36:52;10.55;;;3.30;;
71637;SDS011;59485;43.542;-5.676;2022-10-24T00:39:17;10.43;;;3.57;;
71637;SDS011;59485;43.542;-5.676;2022-10-24T00:41:43;13.63;;;3.83;;
71637;SDS011;59485;43.542;-5.676;2022-10-24T00:46:45;7.20;;;2.20;;
71637;SDS011;59485;43.542;-5.676;2022-10-24T00:49:15;8.03;;;2.57;;
71637;SDS011;59485;43.542;-5.676;2022-10-24T00:51:43;7.22;;;2.05;;
71637;SDS011;59485;43.542;-5.676;2022-10-24T00:54:12;11.82;;;2.30;;
71637;SDS011;59485;43.542;-5.676;2022-10-24T00:56:50;10.25;;;2.08;;
71637;SDS011;59485;43.542;-5.676;2022-10-24T00:59:26;9.38;;;1.98;;
71637;SDS011;59485;43.542;-5.676;2022-10-24T01:01:52;8.97;;;2.13;;
71637;SDS011;59485;43.542;-5.676;2022-10-24T01:04:18;9.02;;;2.20;;
71637;SDS011;59485;43.542;-5.676;2022-10-24T01:06:54;8.37;;;2.00;;
71637;SDS011;59485;43.542;-5.676;2022-10-24T01:12:41;7.85;;;2.05;;
71637;SDS011;59485;43.542;-5.676;2022-10-24T01:15:38;10.68;;;2.30;;
71637;SDS011;59485;43.542;-5.676;2022-10-24T01:29:04;5.07;;;1.50;;
71637;SDS011;59485;43.542;-5.676;2022-10-24T01:37:10;9.80;;;2.38;;
71637;SDS011;59485;43.542;-5.676;2022-10-24T01:39:43;7.30;;;2.35;;
71637;SDS011;59485;43.542;-5.676;2022-10-24T01:42:20;7.72;;;2.45;;
71637;SDS011;59485;43.542;-5.676;2022-10-24T01:44:48;7.78;;;1.95;;
71637;SDS011;59485;43.542;-5.676;2022-10-24T01:47:19;10.20;;;1.73;;
71637;SDS011;59485;43.542;-5.676;2022-10-24T01:49:50;8.65;;;1.45;;
71637;SDS011;59485;43.542;-5.676;2022-10-24T01:52:21;5.28;;;1.33;;
71637;SDS011;59485;43.542;-5.676;2022-10-24T01:54:49;8.75;;;1.20;;
71637;SDS011;59485;43.542;-5.676;2022-10-24T01:57:16;5.60;;;1.52;;
71637;SDS011;59485;43.542;-5.676;2022-10-24T01:59:42;8.23;;;1.13;;
71637;SDS011;59485;43.542;-5.676;2022-10-24T02:05:26;9.38;;;1.60;;
71637;SDS011;59485;43.542;-5.676;2022-10-24T02:08:03;5.40;;;1.00;;
71637;SDS011;59485;43.542;-5.676;2022-10-24T02:10:39;6.70;;;1.20;;
71637;SDS011;59485;43.542;-5.676;2022-10-24T02:13:14;7.60;;;1.65;;
71637;SDS011;59485;43.542;-5.676;2022-10-24T02:15:51;7.20;;;1.70;;
71637;SDS011;59485;43.542;-5.676;2022-10-24T02:18:20;8.50;;;2.08;;
71637;SDS011;59485;43.542;-5.676;2022-10-24T02:26:01;8.35;;;1.80;;
71637;SDS011;59485;43.542;-5.676;2022-10-24T02:28:33;5.35;;;1.23;;
71637;SDS011;59485;43.542;-5.676;2022-10-24T02:31:10;6.97;;;1.00;;
71637;SDS011;59485;43.542;-5.676;2022-10-24T02:33:41;5.83;;;1.17;;
71637;SDS011;59485;43.542;-5.676;2022-10-24T02:38:37;5.10;;;0.90;;
71637;SDS011;59485;43.542;-5.676;2022-10-24T02:41:07;3.95;;;1.00;;
71637;SDS011;59485;43.542;-5.676;2022-10-24T02:43:37;5.00;;;1.15;;
71637;SDS011;59485;43.542;-5.676;2022-10-24T02:46:05;5.10;;;1.57;;
71637;SDS011;59485;43.542;-5.676;2022-10-24T02:48:33;7.25;;;2.67;;
71637;SDS011;59485;43.542;-5.676;2022-10-24T02:51:02;5.60;;;1.70;;
71637;SDS011;59485;43.542;-5.676;2022-10-24T02:53:29;6.18;;;1.45;;
71637;SDS011;59485;43.542;-5.676;2022-10-24T02:55:55;5.83;;;1.37;;
71637;SDS011;59485;43.542;-5.676;2022-10-24T02:58:21;5.75;;;1.17;;
71637;SDS011;59485;43.542;-5.676;2022-10-24T03:00:46;4.03;;;0.90;;
71637;SDS011;59485;43.542;-5.676;2022-10-24T03:03:12;5.97;;;1.60;;
71637;SDS011;59485;43.542;-5.676;2022-10-24T03:05:37;4.00;;;1.20;;
71637;SDS011;59485;43.542;-5.676;2022-10-24T03:08:03;6.33;;;1.30;;
71637;SDS011;59485;43.542;-5.676;2022-10-24T03:10:29;5.53;;;1.58;;
71637;SDS011;59485;43.542;-5.676;2022-10-24T03:12:54;6.07;;;1.03;;
71637;SDS011;59485;43.542;-5.676;2022-10-24T03:15:20;5.33;;;0.90;;
71637;SDS011;59485;43.542;-5.676;2022-10-24T03:17:45;4.65;;;0.80;;
71637;SDS011;59485;43.542;-5.676;2022-10-24T03:20:13;5.85;;;0.85;;
71637;SDS011;59485;43.542;-5.676;2022-10-24T03:22:39;4.50;;;0.85;;
71637;SDS011;59485;43.542;-5.676;2022-10-24T03:25:04;3.33;;;0.60;;
71637;SDS011;59485;43.542;-5.676;2022-10-24T03:27:31;3.90;;;0.70;;
71637;SDS011;59485;43.542;-5.676;2022-10-24T03:29:58;3.80;;;0.75;;
71637;SDS011;59485;43.542;-5.676;2022-10-24T03:32:25;3.13;;;0.47;;
71637;SDS011;59485;43.542;-5.676;2022-10-24T03:34:51;4.43;;;0.90;;
71637;SDS011;59485;43.542;-5.676;2022-10-24T03:37:16;3.17;;;0.50;;
71637;SDS011;59485;43.542;-5.676;2022-10-24T03:39:42;3.80;;;0.90;;
71637;SDS011;59485;43.542;-5.676;2022-10-24T03:42:07;3.20;;;0.63;;
71637;SDS011;59485;43.542;-5.676;2022-10-24T03:44:33;4.10;;;0.60;;
71637;SDS011;59485;43.542;-5.676;2022-10-24T03:46:58;3.80;;;0.73;;
71637;SDS011;59485;43.542;-5.676;2022-10-24T03:49:24;4.23;;;0.60;;
71637;SDS011;59485;43.542;-5.676;2022-10-24T03:51:49;2.92;;;0.43;;
71637;SDS011;59485;43.542;-5.676;2022-10-24T03:54:15;5.03;;;0.90;;
71637;SDS011;59485;43.542;-5.676;2022-10-24T03:56:41;3.50;;;0.63;;
71637;SDS011;59485;43.542;-5.676;2022-10-24T03:59:07;4.53;;;0.40;;
71637;SDS011;59485;43.542;-5.676;2022-10-24T04:01:32;3.40;;;0.75;;
71637;SDS011;59485;43.542;-5.676;2022-10-24T04:03:58;4.00;;;0.60;;
71637;SDS011;59485;43.542;-5.676;2022-10-24T04:06:23;5.23;;;0.50;;
71637;SDS011;59485;43.542;-5.676;2022-10-24T04:08:49;4.63;;;1.00;;
71637;SDS011;59485;43.542;-5.676;2022-10-24T04:11:14;4.43;;;0.70;;
71637;SDS011;59485;43.542;-5.676;2022-10-24T04:13:40;4.15;;;0.82;;
71637;SDS011;59485;43.542;-5.676;2022-10-24T04:16:06;4.80;;;0.83;;
71637;SDS011;59485;43.542;-5.676;2022-10-24T04:18:32;5.22;;;0.82;;
71637;SDS011;59485;43.542;-5.676;2022-10-24T04:20:57;5.67;;;1.43;;
71637;SDS011;59485;43.542;-5.676;2022-10-24T04:23:23;8.23;;;1.13;;
71637;SDS011;59485;43.542;-5.676;2022-10-24T04:25:49;4.93;;;1.00;;
71637;SDS011;59485;43.542;-5.676;2022-10-24T04:28:15;4.72;;;0.90;;
71637;SDS011;59485;43.542;-5.676;2022-10-24T04:30:40;5.27;;;1.10;;
71637;SDS011;59485;43.542;-5.676;2022-10-24T04:33:07;6.32;;;1.23;;
71637;SDS011;59485;43.542;-5.676;2022-10-24T04:35:32;5.17;;;1.40;;
71637;SDS011;59485;43.542;-5.676;2022-10-24T04:37:58;4.50;;;0.93;;
71637;SDS011;59485;43.542;-5.676;2022-10-24T04:40:23;3.77;;;0.70;;
71637;SDS011;59485;43.542;-5.676;2022-10-24T04:42:49;3.93;;;0.83;;
71637;SDS011;59485;43.542;-5.676;2022-10-24T04:45:14;4.40;;;0.52;;
71637;SDS011;59485;43.542;-5.676;2022-10-24T04:47:40;4.57;;;1.00;;
71637;SDS011;59485;43.542;-5.676;2022-10-24T04:50:06;3.83;;;0.70;;
71637;SDS011;59485;43.542;-5.676;2022-10-24T04:54:57;5.88;;;1.35;;
71637;SDS011;59485;43.542;-5.676;2022-10-24T04:57:23;4.82;;;1.02;;
71637;SDS011;59485;43.542;-5.676;2022-10-24T04:59:48;8.40;;;1.60;;
71637;SDS011;59485;43.542;-5.676;2022-10-24T05:02:14;8.57;;;2.00;;
71637;SDS011;59485;43.542;-5.676;2022-10-24T05:04:39;4.90;;;1.27;;
71637;SDS011;59485;43.542;-5.676;2022-10-24T05:07:05;7.30;;;1.40;;
71637;SDS011;59485;43.542;-5.676;2022-10-24T05:09:30;5.18;;;1.30;;
71637;SDS011;59485;43.542;-5.676;2022-10-24T05:11:56;7.13;;;1.23;;
71637;SDS011;59485;43.542;-5.676;2022-10-24T05:14:22;6.80;;;1.10;;
71637;SDS011;59485;43.542;-5.676;2022-10-24T05:16:48;6.15;;;1.10;;
71637;SDS011;59485;43.542;-5.676;2022-10-24T05:19:14;3.50;;;1.02;;
71637;SDS011;59485;43.542;-5.676;2022-10-24T05:21:40;4.82;;;0.90;;
71637;SDS011;59485;43.542;-5.676;2022-10-24T05:24:06;8.10;;;1.27;;
71637;SDS011;59485;43.542;-5.676;2022-10-24T05:26:32;7.00;;;1.35;;
71637;SDS011;59485;43.542;-5.676;2022-10-24T05:28:57;6.23;;;1.40;;
71637;SDS011;59485;43.542;-5.676;2022-10-24T05:31:23;8.43;;;1.40;;
71637;SDS011;59485;43.542;-5.676;2022-10-24T05:33:48;9.95;;;1.95;;
71637;SDS011;59485;43.542;-5.676;2022-10-24T05:36:14;7.97;;;2.10;;
71637;SDS011;59485;43.542;-5.676;2022-10-24T05:38:40;7.57;;;1.85;;
71637;SDS011;59485;43.542;-5.676;2022-10-24T05:41:05;5.87;;;2.13;;
71637;SDS011;59485;43.542;-5.676;2022-10-24T05:43:31;9.93;;;2.90;;
71637;SDS011;59485;43.542;-5.676;2022-10-24T05:45:56;11.57;;;3.45;;
71637;SDS011;59485;43.542;-5.676;2022-10-24T05:48:22;8.43;;;2.70;;
71637;SDS011;59485;43.542;-5.676;2022-10-24T05:50:47;8.10;;;2.33;;
71637;SDS011;59485;43.542;-5.676;2022-10-24T05:53:13;15.30;;;2.92;;
71637;SDS011;59485;43.542;-5.676;2022-10-24T05:55:38;7.67;;;2.37;;
71637;SDS011;59485;43.542;-5.676;2022-10-24T05:58:04;13.50;;;3.33;;
71637;SDS011;59485;43.542;-5.676;2022-10-24T06:00:29;15.20;;;3.43;;
71637;SDS011;59485;43.542;-5.676;2022-10-24T06:02:58;11.25;;;3.63;;
71637;SDS011;59485;43.542;-5.676;2022-10-24T06:05:24;9.90;;;3.72;;
71637;SDS011;59485;43.542;-5.676;2022-10-24T06:07:49;11.27;;;3.07;;
71637;SDS011;59485;43.542;-5.676;2022-10-24T06:10:15;10.35;;;3.10;;
71637;SDS011;59485;43.542;-5.676;2022-10-24T06:12:41;7.30;;;2.20;;
71637;SDS011;59485;43.542;-5.676;2022-10-24T06:15:07;7.47;;;2.35;;
71637;SDS011;59485;43.542;-5.676;2022-10-24T06:17:33;8.43;;;1.93;;
71637;SDS011;59485;43.542;-5.676;2022-10-24T06:19:58;7.50;;;1.10;;
71637;SDS011;59485;43.542;-5.676;2022-10-24T06:22:24;5.83;;;1.23;;
71637;SDS011;59485;43.542;-5.676;2022-10-24T06:24:51;5.55;;;1.10;;
71637;SDS011;59485;43.542;-5.676;2022-10-24T06:27:17;6.05;;;1.52;;
71637;SDS011;59485;43.542;-5.676;2022-10-24T06:29:43;5.13;;;1.50;;
71637;SDS011;59485;43.542;-5.676;2022-10-24T06:32:08;7.43;;;1.52;;
71637;SDS011;59485;43.542;-5.676;2022-10-24T06:34:34;7.67;;;2.53;;
71637;SDS011;59485;43.542;-5.676;2022-10-24T06:36:59;10.73;;;2.90;;
71637;SDS011;59485;43.542;-5.676;2022-10-24T06:39:25;8.98;;;3.15;;
71637;SDS011;59485;43.542;-5.676;2022-10-24T06:41:50;7.73;;;2.40;;
71637;SDS011;59485;43.542;-5.676;2022-10-24T06:44:16;7.40;;;2.67;;
71637;SDS011;59485;43.542;-5.676;2022-10-24T06:46:41;10.98;;;3.33;;
71637;SDS011;59485;43.542;-5.676;2022-10-24T06:49:07;8.30;;;3.50;;
71637;SDS011;59485;43.542;-5.676;2022-10-24T06:51:34;11.23;;;3.28;;
71637;SDS011;59485;43.542;-5.676;2022-10-24T06:53:59;13.23;;;5.97;;
71637;SDS011;59485;43.542;-5.676;2022-10-24T06:56:25;14.43;;;5.70;;
71637;SDS011;59485;43.542;-5.676;2022-10-24T06:58:50;12.40;;;4.33;;
71637;SDS011;59485;43.542;-5.676;2022-10-24T07:01:17;18.40;;;5.77;;
71637;SDS011;59485;43.542;-5.676;2022-10-24T07:03:44;15.85;;;6.20;;
71637;SDS011;59485;43.542;-5.676;2022-10-24T07:06:15;17.45;;;5.75;;
71637;SDS011;59485;43.542;-5.676;2022-10-24T07:08:40;11.52;;;3.95;;
71637;SDS011;59485;43.542;-5.676;2022-10-24T07:11:06;10.20;;;2.58;;
71637;SDS011;59485;43.542;-5.676;2022-10-24T07:13:32;9.03;;;3.40;;
71637;SDS011;59485;43.542;-5.676;2022-10-24T07:18:27;11.63;;;4.53;;
71637;SDS011;59485;43.542;-5.676;2022-10-24T07:20:52;11.17;;;5.57;;
71637;SDS011;59485;43.542;-5.676;2022-10-24T07:23:18;21.77;;;10.10;;
71637;SDS011;59485;43.542;-5.676;2022-10-24T07:25:43;16.80;;;10.30;;
71637;SDS011;59485;43.542;-5.676;2022-10-24T07:28:09;18.30;;;10.07;;
71637;SDS011;59485;43.542;-5.676;2022-10-24T07:30:36;20.70;;;11.27;;
71637;SDS011;59485;43.542;-5.676;2022-10-24T07:33:02;24.77;;;9.63;;
71637;SDS011;59485;43.542;-5.676;2022-10-24T07:35:28;21.15;;;8.95;;
71637;SDS011;59485;43.542;-5.676;2022-10-24T07:37:54;15.47;;;7.00;;
71637;SDS011;59485;43.542;-5.676;2022-10-24T07:40:19;10.13;;;4.03;;
71637;SDS011;59485;43.542;-5.676;2022-10-24T07:42:45;10.93;;;3.20;;
71637;SDS011;59485;43.542;-5.676;2022-10-24T07:45:11;8.68;;;2.20;;
71637;SDS011;59485;43.542;-5.676;2022-10-24T07:47:36;6.73;;;1.40;;
71637;SDS011;59485;43.542;-5.676;2022-10-24T07:50:02;9.02;;;1.58;;
71637;SDS011;59485;43.542;-5.676;2022-10-24T07:52:29;8.23;;;2.70;;
71637;SDS011;59485;43.542;-5.676;2022-10-24T07:54:54;10.23;;;3.40;;
71637;SDS011;59485;43.542;-5.676;2022-10-24T07:57:20;12.80;;;5.03;;
71637;SDS011;59485;43.542;-5.676;2022-10-24T07:59:46;14.00;;;4.38;;
71637;SDS011;59485;43.542;-5.676;2022-10-24T08:02:12;13.17;;;3.90;;
71637;SDS011;59485;43.542;-5.676;2022-10-24T08:04:38;10.07;;;3.53;;
71637;SDS011;59485;43.542;-5.676;2022-10-24T08:07:04;10.05;;;3.25;;
71637;SDS011;59485;43.542;-5.676;2022-10-24T08:09:37;11.48;;;3.75;;
71637;SDS011;59485;43.542;-5.676;2022-10-24T08:12:09;10.90;;;4.37;;
71637;SDS011;59485;43.542;-5.676;2022-10-24T08:14:38;13.70;;;3.80;;
71637;SDS011;59485;43.542;-5.676;2022-10-24T08:17:05;11.20;;;3.70;;
71637;SDS011;59485;43.542;-5.676;2022-10-24T08:19:31;8.07;;;3.42;;
71637;SDS011;59485;43.542;-5.676;2022-10-24T08:21:58;9.73;;;2.73;;
71637;SDS011;59485;43.542;-5.676;2022-10-24T08:24:24;8.07;;;2.60;;
71637;SDS011;59485;43.542;-5.676;2022-10-24T08:26:49;9.57;;;2.58;;
71637;SDS011;59485;43.542;-5.676;2022-10-24T08:29:15;9.63;;;1.93;;
71637;SDS011;59485;43.542;-5.676;2022-10-24T08:31:50;6.15;;;2.03;;
71637;SDS011;59485;43.542;-5.676;2022-10-24T08:34:17;8.85;;;2.25;;
71637;SDS011;59485;43.542;-5.676;2022-10-24T08:36:45;9.20;;;2.33;;
71637;SDS011;59485;43.542;-5.676;2022-10-24T08:39:11;8.53;;;1.90;;
71637;SDS011;59485;43.542;-5.676;2022-10-24T08:49:25;11.52;;;2.85;;
71637;SDS011;59485;43.542;-5.676;2022-10-24T08:51:58;12.95;;;3.60;;
71637;SDS011;59485;43.542;-5.676;2022-10-24T08:54:36;16.63;;;4.00;;
71637;SDS011;59485;43.542;-5.676;2022-10-24T08:57:05;20.27;;;4.43;;
71637;SDS011;59485;43.542;-5.676;2022-10-24T08:59:46;15.67;;;4.30;;
71637;SDS011;59485;43.542;-5.676;2022-10-24T09:02:18;13.73;;;3.30;;
71637;SDS011;59485;43.542;-5.676;2022-10-24T09:05:30;10.15;;;3.50;;
71637;SDS011;59485;43.542;-5.676;2022-10-24T09:07:41;13.02;;;3.55;;
71637;SDS011;59485;43.542;-5.676;2022-10-24T09:10:18;7.68;;;2.85;;
71637;SDS011;59485;43.542;-5.676;2022-10-24T09:12:48;9.07;;;2.80;;
71637;SDS011;59485;43.542;-5.676;2022-10-24T09:15:21;6.28;;;2.25;;
71637;SDS011;59485;43.542;-5.676;2022-10-24T09:17:50;9.65;;;2.50;;
71637;SDS011;59485;43.542;-5.676;2022-10-24T09:22:53;5.90;;;2.10;;
71637;SDS011;59485;43.542;-5.676;2022-10-24T09:25:26;9.68;;;2.95;;
71637;SDS011;59485;43.542;-5.676;2022-10-24T09:27:54;10.38;;;3.00;;
71637;SDS011;59485;43.542;-5.676;2022-10-24T09:30:23;10.60;;;2.97;;
71637;SDS011;59485;43.542;-5.676;2022-10-24T09:32:52;11.63;;;3.43;;
71637;SDS011;59485;43.542;-5.676;2022-10-24T09:35:20;11.82;;;4.35;;
71637;SDS011;59485;43.542;-5.676;2022-10-24T09:37:51;10.38;;;4.05;;
71637;SDS011;59485;43.542;-5.676;2022-10-24T09:40:25;10.95;;;3.45;;
71637;SDS011;59485;43.542;-5.676;2022-10-24T09:43:03;7.78;;;2.53;;
71637;SDS011;59485;43.542;-5.676;2022-10-24T09:45:48;8.93;;;2.93;;
71637;SDS011;59485;43.542;-5.676;2022-10-24T09:48:25;8.25;;;2.65;;
71637;SDS011;59485;43.542;-5.676;2022-10-24T09:50:56;9.93;;;3.20;;
71637;SDS011;59485;43.542;-5.676;2022-10-24T09:55:57;8.73;;;3.70;;
71637;SDS011;59485;43.542;-5.676;2022-10-24T09:58:27;7.90;;;3.60;;
71637;SDS011;59485;43.542;-5.676;2022-10-24T10:03:41;11.75;;;2.92;;
71637;SDS011;59485;43.542;-5.676;2022-10-24T10:06:17;9.52;;;3.53;;
71637;SDS011;59485;43.542;-5.676;2022-10-24T10:11:24;10.17;;;3.07;;
71637;SDS011;59485;43.542;-5.676;2022-10-24T10:13:58;12.02;;;3.78;;
71637;SDS011;59485;43.542;-5.676;2022-10-24T10:24:28;10.67;;;4.07;;
71637;SDS011;59485;43.542;-5.676;2022-10-24T10:35:18;14.60;;;4.70;;
71637;SDS011;59485;43.542;-5.676;2022-10-24T10:38:10;15.47;;;4.23;;
71637;SDS011;59485;43.542;-5.676;2022-10-24T10:41:00;12.02;;;4.40;;
71637;SDS011;59485;43.542;-5.676;2022-10-24T10:43:39;13.57;;;4.38;;
71637;SDS011;59485;43.542;-5.676;2022-10-24T10:53:47;14.52;;;3.33;;
71637;SDS011;59485;43.542;-5.676;2022-10-24T11:04:52;10.05;;;2.55;;
71637;SDS011;59485;43.542;-5.676;2022-10-24T11:07:39;10.90;;;2.65;;
71637;SDS011;59485;43.542;-5.676;2022-10-24T11:10:15;12.97;;;3.07;;
71637;SDS011;59485;43.542;-5.676;2022-10-24T11:12:46;12.57;;;2.75;;
71637;SDS011;59485;43.542;-5.676;2022-10-24T11:15:19;12.82;;;3.10;;
71637;SDS011;59485;43.542;-5.676;2022-10-24T11:20:55;12.77;;;3.25;;
71637;SDS011;59485;43.542;-5.676;2022-10-24T11:23:38;11.37;;;2.00;;
71637;SDS011;59485;43.542;-5.676;2022-10-24T11:28:43;13.57;;;2.92;;
71637;SDS011;59485;43.542;-5.676;2022-10-24T11:31:31;8.32;;;2.13;;
71637;SDS011;59485;43.542;-5.676;2022-10-24T11:34:20;8.38;;;2.17;;
71637;SDS011;59485;43.542;-5.676;2022-10-24T11:36:56;8.40;;;1.50;;
71637;SDS011;59485;43.542;-5.676;2022-10-24T11:52:56;11.15;;;1.50;;
71637;SDS011;59485;43.542;-5.676;2022-10-24T11:55:27;10.32;;;2.20;;
71637;SDS011;59485;43.542;-5.676;2022-10-24T11:58:01;10.02;;;1.65;;
71637;SDS011;59485;43.542;-5.676;2022-10-24T12:00:33;10.20;;;2.22;;
71637;SDS011;59485;43.542;-5.676;2022-10-24T12:03:29;8.40;;;2.10;;
71637;SDS011;59485;43.542;-5.676;2022-10-24T12:15:05;10.00;;;1.98;;
71637;SDS011;59485;43.542;-5.676;2022-10-24T12:20:24;7.88;;;1.23;;
71637;SDS011;59485;43.542;-5.676;2022-10-24T12:22:51;8.60;;;1.75;;
71637;SDS011;59485;43.542;-5.676;2022-10-24T12:25:36;7.65;;;2.25;;
71637;SDS011;59485;43.542;-5.676;2022-10-24T12:28:03;8.63;;;2.95;;
71637;SDS011;59485;43.542;-5.676;2022-10-24T12:38:00;9.05;;;1.50;;
71637;SDS011;59485;43.542;-5.676;2022-10-24T12:40:46;5.57;;;1.55;;
71637;SDS011;59485;43.542;-5.676;2022-10-24T12:43:29;6.28;;;0.88;;
71637;SDS011;59485;43.542;-5.676;2022-10-24T12:49:25;6.17;;;1.83;;
71637;SDS011;59485;43.542;-5.676;2022-10-24T12:51:38;11.50;;;2.58;;
71637;SDS011;59485;43.542;-5.676;2022-10-24T13:10:37;11.98;;;2.15;;
71637;SDS011;59485;43.542;-5.676;2022-10-24T13:13:34;13.90;;;2.60;;
71637;SDS011;59485;43.542;-5.676;2022-10-24T13:19:33;10.18;;;2.33;;
71637;SDS011;59485;43.542;-5.676;2022-10-24T13:22:25;10.43;;;2.22;;
71637;SDS011;59485;43.542;-5.676;2022-10-24T13:24:57;10.15;;;2.13;;
71637;SDS011;59485;43.542;-5.676;2022-10-24T13:27:28;6.50;;;2.22;;
71637;SDS011;59485;43.542;-5.676;2022-10-24T13:32:22;12.27;;;1.70;;
71637;SDS011;59485;43.542;-5.676;2022-10-24T13:34:54;10.23;;;1.70;;
71637;SDS011;59485;43.542;-5.676;2022-10-24T13:37:22;9.25;;;2.22;;
71637;SDS011;59485;43.542;-5.676;2022-10-24T13:39:54;10.55;;;2.55;;
71637;SDS011;59485;43.542;-5.676;2022-10-24T13:42:52;13.93;;;5.05;;
71637;SDS011;59485;43.542;-5.676;2022-10-24T13:45:32;13.23;;;3.67;;
71637;SDS011;59485;43.542;-5.676;2022-10-24T13:48:01;7.20;;;1.67;;
71637;SDS011;59485;43.542;-5.676;2022-10-24T13:50:33;11.10;;;2.00;;
71637;SDS011;59485;43.542;-5.676;2022-10-24T13:53:21;7.20;;;1.50;;
71637;SDS011;59485;43.542;-5.676;2022-10-24T13:55:49;6.88;;;1.42;;
71637;SDS011;59485;43.542;-5.676;2022-10-24T13:58:17;10.27;;;1.70;;
71637;SDS011;59485;43.542;-5.676;2022-10-24T14:00:45;9.60;;;2.23;;
71637;SDS011;59485;43.542;-5.676;2022-10-24T14:03:16;7.82;;;1.98;;
71637;SDS011;59485;43.542;-5.676;2022-10-24T14:05:50;7.25;;;1.90;;
71637;SDS011;59485;43.542;-5.676;2022-10-24T14:13:17;10.13;;;1.40;;
71637;SDS011;59485;43.542;-5.676;2022-10-24T14:15:49;9.77;;;2.00;;
71637;SDS011;59485;43.542;-5.676;2022-10-24T14:18:20;11.45;;;3.17;;
71637;SDS011;59485;43.542;-5.676;2022-10-24T14:23:22;8.93;;;3.53;;
71637;SDS011;59485;43.542;-5.676;2022-10-24T14:26:01;10.13;;;2.20;;
71637;SDS011;59485;43.542;-5.676;2022-10-24T14:28:37;5.78;;;1.73;;
71637;SDS011;59485;43.542;-5.676;2022-10-24T14:31:28;8.50;;;1.50;;
71637;SDS011;59485;43.542;-5.676;2022-10-24T14:34:02;8.95;;;1.50;;
71637;SDS011;59485;43.542;-5.676;2022-10-24T14:36:33;9.20;;;1.23;;
71637;SDS011;59485;43.542;-5.676;2022-10-24T14:39:01;6.47;;;1.17;;
71637;SDS011;59485;43.542;-5.676;2022-10-24T14:41:32;8.52;;;1.10;;
71637;SDS011;59485;43.542;-5.676;2022-10-24T14:44:03;7.30;;;1.70;;
71637;SDS011;59485;43.542;-5.676;2022-10-24T14:46:34;14.80;;;1.58;;
71637;SDS011;59485;43.542;-5.676;2022-10-24T14:49:01;9.43;;;2.00;;
71637;SDS011;59485;43.542;-5.676;2022-10-24T14:52:09;6.93;;;1.70;;
71637;SDS011;59485;43.542;-5.676;2022-10-24T14:54:42;7.32;;;1.60;;
71637;SDS011;59485;43.542;-5.676;2022-10-24T14:57:17;5.60;;;1.43;;
71637;SDS011;59485;43.542;-5.676;2022-10-24T14:59:45;4.47;;;1.50;;
71637;SDS011;59485;43.542;-5.676;2022-10-24T15:07:41;7.43;;;1.65;;
71637;SDS011;59485;43.542;-5.676;2022-10-24T15:12:59;6.75;;;1.10;;
71637;SDS011;59485;43.542;-5.676;2022-10-24T15:15:32;7.70;;;1.70;;
71637;SDS011;59485;43.542;-5.676;2022-10-24T15:18:17;7.00;;;1.02;;
71637;SDS011;59485;43.542;-5.676;2022-10-24T15:23:34;8.30;;;1.40;;
71637;SDS011;59485;43.542;-5.676;2022-10-24T15:31:29;8.68;;;1.38;;
71637;SDS011;59485;43.542;-5.676;2022-10-24T15:33:56;9.43;;;1.40;;
71637;SDS011;59485;43.542;-5.676;2022-10-24T15:36:23;6.77;;;1.50;;
71637;SDS011;59485;43.542;-5.676;2022-10-24T15:38:58;7.30;;;1.38;;
71637;SDS011;59485;43.542;-5.676;2022-10-24T15:41:26;9.13;;;1.90;;
71637;SDS011;59485;43.542;-5.676;2022-10-24T15:43:52;9.67;;;1.30;;
71637;SDS011;59485;43.542;-5.676;2022-10-24T15:46:18;9.30;;;2.15;;
71637;SDS011;59485;43.542;-5.676;2022-10-24T15:48:45;9.83;;;2.17;;
71637;SDS011;59485;43.542;-5.676;2022-10-24T15:51:12;9.05;;;1.70;;
71637;SDS011;59485;43.542;-5.676;2022-10-24T15:53:41;8.95;;;1.58;;
71637;SDS011;59485;43.542;-5.676;2022-10-24T15:56:07;10.27;;;1.58;;
71637;SDS011;59485;43.542;-5.676;2022-10-24T15:58:32;6.87;;;1.33;;
71637;SDS011;59485;43.542;-5.676;2022-10-24T16:00:58;8.90;;;1.73;;
71637;SDS011;59485;43.542;-5.676;2022-10-24T16:03:24;8.95;;;1.80;;
71637;SDS011;59485;43.542;-5.676;2022-10-24T16:05:53;7.93;;;1.43;;
71637;SDS011;59485;43.542;-5.676;2022-10-24T16:08:21;12.75;;;1.52;;
71637;SDS011;59485;43.542;-5.676;2022-10-24T16:10:48;12.10;;;2.38;;
71637;SDS011;59485;43.542;-5.676;2022-10-24T16:13:15;10.80;;;1.52;;
71637;SDS011;59485;43.542;-5.676;2022-10-24T16:15:44;8.80;;;1.55;;
71637;SDS011;59485;43.542;-5.676;2022-10-24T16:18:11;10.60;;;2.03;;
71637;SDS011;59485;43.542;-5.676;2022-10-24T16:20:46;9.77;;;1.48;;
71637;SDS011;59485;43.542;-5.676;2022-10-24T16:23:13;12.65;;;1.98;;
71637;SDS011;59485;43.542;-5.676;2022-10-24T16:25:40;11.07;;;2.40;;
71637;SDS011;59485;43.542;-5.676;2022-10-24T16:28:06;9.20;;;2.50;;
71637;SDS011;59485;43.542;-5.676;2022-10-24T16:30:33;9.60;;;1.50;;
71637;SDS011;59485;43.542;-5.676;2022-10-24T16:33:02;13.05;;;2.25;;
71637;SDS011;59485;43.542;-5.676;2022-10-24T16:35:29;10.52;;;1.88;;
71637;SDS011;59485;43.542;-5.676;2022-10-24T16:37:57;11.63;;;2.80;;
71637;SDS011;59485;43.542;-5.676;2022-10-24T16:40:24;10.10;;;1.57;;
71637;SDS011;59485;43.542;-5.676;2022-10-24T16:42:51;8.43;;;1.90;;
71637;SDS011;59485;43.542;-5.676;2022-10-24T16:45:18;8.52;;;1.88;;
71637;SDS011;59485;43.542;-5.676;2022-10-24T16:47:44;6.80;;;1.33;;
71637;SDS011;59485;43.542;-5.676;2022-10-24T16:50:15;10.35;;;1.73;;
71637;SDS011;59485;43.542;-5.676;2022-10-24T16:52:45;9.83;;;1.50;;
71637;SDS011;59485;43.542;-5.676;2022-10-24T16:55:11;6.20;;;1.42;;
71637;SDS011;59485;43.542;-5.676;2022-10-24T16:57:39;9.70;;;1.27;;
71637;SDS011;59485;43.542;-5.676;2022-10-24T17:00:06;7.78;;;1.17;;
71637;SDS011;59485;43.542;-5.676;2022-10-24T17:02:33;12.32;;;2.25;;
71637;SDS011;59485;43.542;-5.676;2022-10-24T17:04:58;9.07;;;2.17;;
71637;SDS011;59485;43.542;-5.676;2022-10-24T17:07:24;15.50;;;2.25;;
71637;SDS011;59485;43.542;-5.676;2022-10-24T17:09:49;8.47;;;1.50;;
71637;SDS011;59485;43.542;-5.676;2022-10-24T17:12:15;8.67;;;2.00;;
71637;SDS011;59485;43.542;-5.676;2022-10-24T17:14:40;8.93;;;1.63;;
71637;SDS011;59485;43.542;-5.676;2022-10-24T17:17:06;9.03;;;1.67;;
71637;SDS011;59485;43.542;-5.676;2022-10-24T17:19:31;9.77;;;1.67;;
71637;SDS011;59485;43.542;-5.676;2022-10-24T17:21:59;8.48;;;1.23;;
71637;SDS011;59485;43.542;-5.676;2022-10-24T17:24:25;10.30;;;2.22;;
71637;SDS011;59485;43.542;-5.676;2022-10-24T17:26:51;8.77;;;1.77;;
71637;SDS011;59485;43.542;-5.676;2022-10-24T17:29:21;8.85;;;1.48;;
71637;SDS011;59485;43.542;-5.676;2022-10-24T17:31:50;7.07;;;1.30;;
71637;SDS011;59485;43.542;-5.676;2022-10-24T17:36:41;12.17;;;2.00;;
71637;SDS011;59485;43.542;-5.676;2022-10-24T17:39:13;8.47;;;1.90;;
71637;SDS011;59485;43.542;-5.676;2022-10-24T17:41:44;7.68;;;1.35;;